sensor_id;sensor_type;location;lat;lon;timestamp;P1;durP1;ratioP1;P2;durP2;ratioP2
23376;SDS011;14353;46.070;13.222;2023-05-14T00:01:32;1.23;;;1.13;;
23376;SDS011;14353;46.070;13.222;2023-05-14T00:03:58;1.20;;;1.10;;
23376;SDS011;14353;46.070;13.222;2023-05-14T00:06:24;1.40;;;1.30;;
23376;SDS011;14353;46.070;13.222;2023-05-14T00:08:50;1.25;;;1.10;;
23376;SDS011;14353;46.070;13.222;2023-05-14T00:11:16;1.20;;;1.10;;
23376;SDS011;14353;46.070;13.222;2023-05-14T00:13:41;0.80;;;0.80;;
23376;SDS011;14353;46.070;13.222;2023-05-14T00:16:07;1.25;;;1.15;;
23376;SDS011;14353;46.070;13.222;2023-05-14T00:18:33;1.38;;;1.15;;
23376;SDS011;14353;46.070;13.222;2023-05-14T00:20:59;1.38;;;1.00;;
23376;SDS011;14353;46.070;13.222;2023-05-14T00:23:24;1.55;;;1.00;;
23376;SDS011;14353;46.070;13.222;2023-05-14T00:25:50;1.30;;;1.10;;
23376;SDS011;14353;46.070;13.222;2023-05-14T00:28:16;1.10;;;1.00;;
23376;SDS011;14353;46.070;13.222;2023-05-14T00:30:42;1.60;;;1.00;;
23376;SDS011;14353;46.070;13.222;2023-05-14T00:33:08;1.25;;;1.10;;
23376;SDS011;14353;46.070;13.222;2023-05-14T00:35:33;1.55;;;1.20;;
23376;SDS011;14353;46.070;13.222;2023-05-14T00:38:00;1.70;;;1.20;;
23376;SDS011;14353;46.070;13.222;2023-05-14T00:40:26;1.60;;;1.05;;
23376;SDS011;14353;46.070;13.222;2023-05-14T00:42:53;1.00;;;0.90;;
23376;SDS011;14353;46.070;13.222;2023-05-14T00:45:19;1.23;;;1.10;;
23376;SDS011;14353;46.070;13.222;2023-05-14T00:47:46;1.35;;;1.08;;
23376;SDS011;14353;46.070;13.222;2023-05-14T00:50:12;1.15;;;1.05;;
23376;SDS011;14353;46.070;13.222;2023-05-14T00:52:39;1.00;;;0.90;;
23376;SDS011;14353;46.070;13.222;2023-05-14T00:55:06;1.52;;;1.17;;
23376;SDS011;14353;46.070;13.222;2023-05-14T00:57:33;1.10;;;0.82;;
23376;SDS011;14353;46.070;13.222;2023-05-14T01:00:00;1.52;;;1.10;;
23376;SDS011;14353;46.070;13.222;2023-05-14T01:02:27;1.27;;;1.10;;
23376;SDS011;14353;46.070;13.222;2023-05-14T01:04:53;1.13;;;0.90;;
23376;SDS011;14353;46.070;13.222;2023-05-14T01:07:23;1.40;;;1.00;;
23376;SDS011;14353;46.070;13.222;2023-05-14T01:10:14;1.17;;;1.08;;
23376;SDS011;14353;46.070;13.222;2023-05-14T01:13:07;0.90;;;0.90;;
23376;SDS011;14353;46.070;13.222;2023-05-14T01:15:52;2.00;;;1.08;;
23376;SDS011;14353;46.070;13.222;2023-05-14T01:18:21;1.17;;;1.05;;
23376;SDS011;14353;46.070;13.222;2023-05-14T01:20:49;0.90;;;0.90;;
23376;SDS011;14353;46.070;13.222;2023-05-14T01:23:18;1.00;;;0.95;;
23376;SDS011;14353;46.070;13.222;2023-05-14T01:25:44;1.30;;;1.20;;
23376;SDS011;14353;46.070;13.222;2023-05-14T01:28:19;1.10;;;1.00;;
23376;SDS011;14353;46.070;13.222;2023-05-14T01:30:55;1.10;;;1.00;;
23376;SDS011;14353;46.070;13.222;2023-05-14T01:33:28;1.17;;;1.08;;
23376;SDS011;14353;46.070;13.222;2023-05-14T01:35:55;1.10;;;1.00;;
23376;SDS011;14353;46.070;13.222;2023-05-14T01:38:22;1.17;;;1.00;;
23376;SDS011;14353;46.070;13.222;2023-05-14T01:40:49;1.00;;;0.90;;
23376;SDS011;14353;46.070;13.222;2023-05-14T01:43:17;1.40;;;1.00;;
23376;SDS011;14353;46.070;13.222;2023-05-14T01:45:43;0.88;;;0.85;;
23376;SDS011;14353;46.070;13.222;2023-05-14T01:48:09;1.02;;;0.82;;
23376;SDS011;14353;46.070;13.222;2023-05-14T01:50:34;0.90;;;0.80;;
23376;SDS011;14353;46.070;13.222;2023-05-14T01:53:00;0.95;;;0.80;;
23376;SDS011;14353;46.070;13.222;2023-05-14T01:55:26;0.98;;;0.88;;
23376;SDS011;14353;46.070;13.222;2023-05-14T01:57:52;1.02;;;0.90;;
23376;SDS011;14353;46.070;13.222;2023-05-14T02:00:18;0.98;;;0.90;;
23376;SDS011;14353;46.070;13.222;2023-05-14T02:02:44;0.85;;;0.73;;
23376;SDS011;14353;46.070;13.222;2023-05-14T02:05:11;0.90;;;0.82;;
23376;SDS011;14353;46.070;13.222;2023-05-14T02:07:37;1.40;;;0.88;;
23376;SDS011;14353;46.070;13.222;2023-05-14T02:10:03;1.00;;;0.82;;
23376;SDS011;14353;46.070;13.222;2023-05-14T02:12:29;0.80;;;0.80;;
23376;SDS011;14353;46.070;13.222;2023-05-14T02:14:55;0.75;;;0.75;;
23376;SDS011;14353;46.070;13.222;2023-05-14T02:17:20;0.88;;;0.80;;
23376;SDS011;14353;46.070;13.222;2023-05-14T02:19:46;1.10;;;0.90;;
23376;SDS011;14353;46.070;13.222;2023-05-14T02:22:12;1.00;;;0.90;;
23376;SDS011;14353;46.070;13.222;2023-05-14T02:24:38;0.98;;;0.90;;
23376;SDS011;14353;46.070;13.222;2023-05-14T02:27:03;1.38;;;0.82;;
23376;SDS011;14353;46.070;13.222;2023-05-14T02:29:30;0.80;;;0.75;;
23376;SDS011;14353;46.070;13.222;2023-05-14T02:31:56;1.65;;;0.90;;
23376;SDS011;14353;46.070;13.222;2023-05-14T02:34:21;1.13;;;0.90;;
23376;SDS011;14353;46.070;13.222;2023-05-14T02:36:47;0.85;;;0.85;;
23376;SDS011;14353;46.070;13.222;2023-05-14T02:39:13;1.10;;;1.00;;
23376;SDS011;14353;46.070;13.222;2023-05-14T02:41:39;1.27;;;0.80;;
23376;SDS011;14353;46.070;13.222;2023-05-14T02:44:04;2.00;;;0.90;;
23376;SDS011;14353;46.070;13.222;2023-05-14T02:46:30;0.88;;;0.80;;
23376;SDS011;14353;46.070;13.222;2023-05-14T02:48:56;0.90;;;0.90;;
23376;SDS011;14353;46.070;13.222;2023-05-14T02:51:22;1.10;;;1.00;;
23376;SDS011;14353;46.070;13.222;2023-05-14T02:53:48;0.75;;;0.75;;
23376;SDS011;14353;46.070;13.222;2023-05-14T02:56:14;1.05;;;0.93;;
23376;SDS011;14353;46.070;13.222;2023-05-14T02:58:40;1.10;;;0.80;;
23376;SDS011;14353;46.070;13.222;2023-05-14T03:01:06;0.80;;;0.80;;
23376;SDS011;14353;46.070;13.222;2023-05-14T03:03:32;0.90;;;0.75;;
23376;SDS011;14353;46.070;13.222;2023-05-14T03:05:58;0.85;;;0.80;;
23376;SDS011;14353;46.070;13.222;2023-05-14T03:08:24;0.90;;;0.82;;
23376;SDS011;14353;46.070;13.222;2023-05-14T03:10:50;1.65;;;0.90;;
23376;SDS011;14353;46.070;13.222;2023-05-14T03:13:15;0.70;;;0.70;;
23376;SDS011;14353;46.070;13.222;2023-05-14T03:15:44;1.13;;;1.00;;
23376;SDS011;14353;46.070;13.222;2023-05-14T03:18:11;0.77;;;0.70;;
23376;SDS011;14353;46.070;13.222;2023-05-14T03:20:37;0.80;;;0.80;;
23376;SDS011;14353;46.070;13.222;2023-05-14T03:23:02;1.00;;;0.80;;
23376;SDS011;14353;46.070;13.222;2023-05-14T03:25:28;1.00;;;0.90;;
23376;SDS011;14353;46.070;13.222;2023-05-14T03:27:54;0.90;;;0.80;;
23376;SDS011;14353;46.070;13.222;2023-05-14T03:30:20;1.10;;;0.90;;
23376;SDS011;14353;46.070;13.222;2023-05-14T03:32:45;0.80;;;0.80;;
23376;SDS011;14353;46.070;13.222;2023-05-14T03:35:11;0.70;;;0.70;;
23376;SDS011;14353;46.070;13.222;2023-05-14T03:37:37;1.17;;;0.80;;
23376;SDS011;14353;46.070;13.222;2023-05-14T03:40:02;0.80;;;0.80;;
23376;SDS011;14353;46.070;13.222;2023-05-14T03:42:29;0.75;;;0.75;;
23376;SDS011;14353;46.070;13.222;2023-05-14T03:44:54;2.13;;;0.80;;
23376;SDS011;14353;46.070;13.222;2023-05-14T03:47:20;1.08;;;0.80;;
23376;SDS011;14353;46.070;13.222;2023-05-14T03:49:45;0.90;;;0.80;;
23376;SDS011;14353;46.070;13.222;2023-05-14T03:52:11;0.77;;;0.77;;
23376;SDS011;14353;46.070;13.222;2023-05-14T03:54:37;0.82;;;0.82;;
23376;SDS011;14353;46.070;13.222;2023-05-14T03:57:05;0.82;;;0.75;;
23376;SDS011;14353;46.070;13.222;2023-05-14T03:59:30;1.00;;;0.90;;
23376;SDS011;14353;46.070;13.222;2023-05-14T04:01:56;0.63;;;0.63;;
23376;SDS011;14353;46.070;13.222;2023-05-14T04:04:22;0.80;;;0.70;;
23376;SDS011;14353;46.070;13.222;2023-05-14T04:06:48;0.70;;;0.70;;
23376;SDS011;14353;46.070;13.222;2023-05-14T04:09:13;0.80;;;0.80;;
23376;SDS011;14353;46.070;13.222;2023-05-14T04:11:39;0.75;;;0.70;;
23376;SDS011;14353;46.070;13.222;2023-05-14T04:14:05;0.82;;;0.77;;
23376;SDS011;14353;46.070;13.222;2023-05-14T04:16:30;0.70;;;0.70;;
23376;SDS011;14353;46.070;13.222;2023-05-14T04:18:56;1.02;;;0.82;;
23376;SDS011;14353;46.070;13.222;2023-05-14T04:21:22;0.70;;;0.70;;
23376;SDS011;14353;46.070;13.222;2023-05-14T04:23:48;0.88;;;0.73;;
23376;SDS011;14353;46.070;13.222;2023-05-14T04:26:14;1.58;;;0.47;;
23376;SDS011;14353;46.070;13.222;2023-05-14T04:28:40;0.70;;;0.70;;
23376;SDS011;14353;46.070;13.222;2023-05-14T04:31:06;0.85;;;0.80;;
23376;SDS011;14353;46.070;13.222;2023-05-14T04:33:31;0.82;;;0.80;;
23376;SDS011;14353;46.070;13.222;2023-05-14T04:35:57;0.70;;;0.60;;
23376;SDS011;14353;46.070;13.222;2023-05-14T04:38:23;0.93;;;0.80;;
23376;SDS011;14353;46.070;13.222;2023-05-14T04:40:48;0.63;;;0.63;;
23376;SDS011;14353;46.070;13.222;2023-05-14T04:43:14;0.70;;;0.70;;
23376;SDS011;14353;46.070;13.222;2023-05-14T04:45:41;0.77;;;0.55;;
23376;SDS011;14353;46.070;13.222;2023-05-14T04:48:07;1.05;;;0.80;;
23376;SDS011;14353;46.070;13.222;2023-05-14T04:50:33;0.77;;;0.73;;
23376;SDS011;14353;46.070;13.222;2023-05-14T04:52:59;0.73;;;0.73;;
23376;SDS011;14353;46.070;13.222;2023-05-14T04:55:25;0.70;;;0.60;;
23376;SDS011;14353;46.070;13.222;2023-05-14T04:57:51;0.80;;;0.70;;
23376;SDS011;14353;46.070;13.222;2023-05-14T05:00:17;0.93;;;0.70;;
23376;SDS011;14353;46.070;13.222;2023-05-14T05:02:43;0.98;;;0.60;;
23376;SDS011;14353;46.070;13.222;2023-05-14T05:05:09;0.80;;;0.80;;
23376;SDS011;14353;46.070;13.222;2023-05-14T05:07:34;0.80;;;0.70;;
23376;SDS011;14353;46.070;13.222;2023-05-14T05:10:00;0.70;;;0.70;;
23376;SDS011;14353;46.070;13.222;2023-05-14T05:12:26;0.60;;;0.60;;
23376;SDS011;14353;46.070;13.222;2023-05-14T05:14:55;1.40;;;0.90;;
23376;SDS011;14353;46.070;13.222;2023-05-14T05:17:21;0.70;;;0.70;;
23376;SDS011;14353;46.070;13.222;2023-05-14T05:19:47;0.80;;;0.80;;
23376;SDS011;14353;46.070;13.222;2023-05-14T05:22:13;0.70;;;0.50;;
23376;SDS011;14353;46.070;13.222;2023-05-14T05:24:39;0.65;;;0.60;;
23376;SDS011;14353;46.070;13.222;2023-05-14T05:27:07;0.50;;;0.50;;
23376;SDS011;14353;46.070;13.222;2023-05-14T05:29:33;0.90;;;0.70;;
23376;SDS011;14353;46.070;13.222;2023-05-14T05:31:59;0.60;;;0.60;;
23376;SDS011;14353;46.070;13.222;2023-05-14T05:34:25;1.10;;;0.90;;
23376;SDS011;14353;46.070;13.222;2023-05-14T05:36:51;0.88;;;0.70;;
23376;SDS011;14353;46.070;13.222;2023-05-14T05:39:16;0.70;;;0.70;;
23376;SDS011;14353;46.070;13.222;2023-05-14T05:41:42;0.88;;;0.65;;
23376;SDS011;14353;46.070;13.222;2023-05-14T05:44:08;1.70;;;0.57;;
23376;SDS011;14353;46.070;13.222;2023-05-14T05:46:34;0.73;;;0.70;;
23376;SDS011;14353;46.070;13.222;2023-05-14T05:48:59;0.70;;;0.70;;
23376;SDS011;14353;46.070;13.222;2023-05-14T05:51:25;0.82;;;0.70;;
23376;SDS011;14353;46.070;13.222;2023-05-14T05:53:51;0.60;;;0.60;;
23376;SDS011;14353;46.070;13.222;2023-05-14T05:56:16;0.60;;;0.60;;
23376;SDS011;14353;46.070;13.222;2023-05-14T05:58:42;0.70;;;0.63;;
23376;SDS011;14353;46.070;13.222;2023-05-14T06:01:08;0.70;;;0.60;;
23376;SDS011;14353;46.070;13.222;2023-05-14T06:03:33;0.50;;;0.50;;
23376;SDS011;14353;46.070;13.222;2023-05-14T06:05:59;1.05;;;0.60;;
23376;SDS011;14353;46.070;13.222;2023-05-14T06:08:25;0.70;;;0.70;;
23376;SDS011;14353;46.070;13.222;2023-05-14T06:10:51;0.70;;;0.70;;
23376;SDS011;14353;46.070;13.222;2023-05-14T06:13:16;1.15;;;0.68;;
23376;SDS011;14353;46.070;13.222;2023-05-14T06:15:42;0.70;;;0.60;;
23376;SDS011;14353;46.070;13.222;2023-05-14T06:18:08;0.90;;;0.77;;
23376;SDS011;14353;46.070;13.222;2023-05-14T06:20:33;0.68;;;0.68;;
23376;SDS011;14353;46.070;13.222;2023-05-14T06:22:59;1.15;;;0.60;;
23376;SDS011;14353;46.070;13.222;2023-05-14T06:25:25;0.60;;;0.60;;
23376;SDS011;14353;46.070;13.222;2023-05-14T06:27:51;0.65;;;0.60;;
23376;SDS011;14353;46.070;13.222;2023-05-14T06:30:16;1.05;;;0.70;;
23376;SDS011;14353;46.070;13.222;2023-05-14T06:32:42;0.80;;;0.70;;
23376;SDS011;14353;46.070;13.222;2023-05-14T06:35:08;0.90;;;0.70;;
23376;SDS011;14353;46.070;13.222;2023-05-14T06:37:33;0.52;;;0.52;;
23376;SDS011;14353;46.070;13.222;2023-05-14T06:39:59;0.50;;;0.50;;
23376;SDS011;14353;46.070;13.222;2023-05-14T06:42:25;0.80;;;0.70;;
23376;SDS011;14353;46.070;13.222;2023-05-14T06:44:51;0.52;;;0.50;;
23376;SDS011;14353;46.070;13.222;2023-05-14T06:47:17;1.15;;;0.60;;
23376;SDS011;14353;46.070;13.222;2023-05-14T06:49:42;0.50;;;0.50;;
23376;SDS011;14353;46.070;13.222;2023-05-14T06:52:08;0.70;;;0.60;;
23376;SDS011;14353;46.070;13.222;2023-05-14T06:54:34;0.60;;;0.60;;
23376;SDS011;14353;46.070;13.222;2023-05-14T06:57:00;0.77;;;0.60;;
23376;SDS011;14353;46.070;13.222;2023-05-14T06:59:25;0.68;;;0.65;;
23376;SDS011;14353;46.070;13.222;2023-05-14T07:01:51;0.57;;;0.57;;
23376;SDS011;14353;46.070;13.222;2023-05-14T07:04:17;0.70;;;0.70;;
23376;SDS011;14353;46.070;13.222;2023-05-14T07:06:42;0.65;;;0.60;;
23376;SDS011;14353;46.070;13.222;2023-05-14T07:09:08;0.50;;;0.50;;
23376;SDS011;14353;46.070;13.222;2023-05-14T07:11:34;0.93;;;0.60;;
23376;SDS011;14353;46.070;13.222;2023-05-14T07:14:00;2.40;;;0.90;;
23376;SDS011;14353;46.070;13.222;2023-05-14T07:16:26;0.77;;;0.60;;
23376;SDS011;14353;46.070;13.222;2023-05-14T07:18:52;0.63;;;0.60;;
23376;SDS011;14353;46.070;13.222;2023-05-14T07:21:17;0.60;;;0.60;;
23376;SDS011;14353;46.070;13.222;2023-05-14T07:23:43;0.52;;;0.50;;
23376;SDS011;14353;46.070;13.222;2023-05-14T07:26:09;0.45;;;0.45;;
23376;SDS011;14353;46.070;13.222;2023-05-14T07:28:34;0.45;;;0.45;;
23376;SDS011;14353;46.070;13.222;2023-05-14T07:31:02;0.50;;;0.50;;
23376;SDS011;14353;46.070;13.222;2023-05-14T07:33:32;0.40;;;0.40;;
23376;SDS011;14353;46.070;13.222;2023-05-14T07:36:01;0.90;;;0.60;;
23376;SDS011;14353;46.070;13.222;2023-05-14T07:38:27;0.73;;;0.70;;
23376;SDS011;14353;46.070;13.222;2023-05-14T07:40:53;1.10;;;0.60;;
23376;SDS011;14353;46.070;13.222;2023-05-14T07:43:18;0.60;;;0.60;;
23376;SDS011;14353;46.070;13.222;2023-05-14T07:45:44;0.50;;;0.50;;
23376;SDS011;14353;46.070;13.222;2023-05-14T07:48:10;0.50;;;0.50;;
23376;SDS011;14353;46.070;13.222;2023-05-14T07:50:36;0.52;;;0.52;;
23376;SDS011;14353;46.070;13.222;2023-05-14T07:53:02;0.65;;;0.65;;
23376;SDS011;14353;46.070;13.222;2023-05-14T07:55:27;0.75;;;0.65;;
23376;SDS011;14353;46.070;13.222;2023-05-14T07:57:53;0.75;;;0.60;;
23376;SDS011;14353;46.070;13.222;2023-05-14T08:00:19;0.65;;;0.65;;
23376;SDS011;14353;46.070;13.222;2023-05-14T08:02:45;0.50;;;0.50;;
23376;SDS011;14353;46.070;13.222;2023-05-14T08:05:10;0.70;;;0.60;;
23376;SDS011;14353;46.070;13.222;2023-05-14T08:07:36;0.50;;;0.50;;
23376;SDS011;14353;46.070;13.222;2023-05-14T08:10:02;0.50;;;0.50;;
23376;SDS011;14353;46.070;13.222;2023-05-14T08:12:28;0.63;;;0.60;;
23376;SDS011;14353;46.070;13.222;2023-05-14T08:14:54;0.82;;;0.60;;
23376;SDS011;14353;46.070;13.222;2023-05-14T08:17:20;0.55;;;0.50;;
23376;SDS011;14353;46.070;13.222;2023-05-14T08:19:46;0.60;;;0.60;;
23376;SDS011;14353;46.070;13.222;2023-05-14T08:22:11;1.02;;;0.52;;
23376;SDS011;14353;46.070;13.222;2023-05-14T08:24:37;0.55;;;0.50;;
23376;SDS011;14353;46.070;13.222;2023-05-14T08:27:03;0.85;;;0.63;;
23376;SDS011;14353;46.070;13.222;2023-05-14T08:29:29;0.55;;;0.50;;
23376;SDS011;14353;46.070;13.222;2023-05-14T08:31:55;0.70;;;0.50;;
23376;SDS011;14353;46.070;13.222;2023-05-14T08:34:21;0.50;;;0.50;;
23376;SDS011;14353;46.070;13.222;2023-05-14T08:36:47;0.50;;;0.45;;
23376;SDS011;14353;46.070;13.222;2023-05-14T08:39:12;0.60;;;0.60;;
23376;SDS011;14353;46.070;13.222;2023-05-14T08:41:38;0.55;;;0.50;;
23376;SDS011;14353;46.070;13.222;2023-05-14T08:44:06;0.50;;;0.50;;
23376;SDS011;14353;46.070;13.222;2023-05-14T08:46:36;0.55;;;0.55;;
23376;SDS011;14353;46.070;13.222;2023-05-14T08:51:50;0.68;;;0.68;;
23376;SDS011;14353;46.070;13.222;2023-05-14T08:54:16;0.50;;;0.50;;
23376;SDS011;14353;46.070;13.222;2023-05-14T08:56:45;0.60;;;0.50;;
23376;SDS011;14353;46.070;13.222;2023-05-14T08:59:11;0.60;;;0.60;;
23376;SDS011;14353;46.070;13.222;2023-05-14T09:01:37;0.65;;;0.50;;
23376;SDS011;14353;46.070;13.222;2023-05-14T09:04:08;0.55;;;0.55;;
23376;SDS011;14353;46.070;13.222;2023-05-14T09:06:35;0.68;;;0.57;;
23376;SDS011;14353;46.070;13.222;2023-05-14T09:09:02;0.70;;;0.70;;
23376;SDS011;14353;46.070;13.222;2023-05-14T09:11:28;0.52;;;0.52;;
23376;SDS011;14353;46.070;13.222;2023-05-14T09:13:54;0.65;;;0.50;;
23376;SDS011;14353;46.070;13.222;2023-05-14T09:16:19;0.45;;;0.45;;
23376;SDS011;14353;46.070;13.222;2023-05-14T09:18:46;0.82;;;0.63;;
23376;SDS011;14353;46.070;13.222;2023-05-14T09:21:12;0.55;;;0.40;;
23376;SDS011;14353;46.070;13.222;2023-05-14T09:23:40;0.90;;;0.60;;
23376;SDS011;14353;46.070;13.222;2023-05-14T09:26:08;0.60;;;0.60;;
23376;SDS011;14353;46.070;13.222;2023-05-14T09:28:34;0.77;;;0.60;;
23376;SDS011;14353;46.070;13.222;2023-05-14T09:31:00;0.60;;;0.50;;
23376;SDS011;14353;46.070;13.222;2023-05-14T09:33:27;0.95;;;0.60;;
23376;SDS011;14353;46.070;13.222;2023-05-14T09:36:00;0.88;;;0.65;;
23376;SDS011;14353;46.070;13.222;2023-05-14T09:38:32;0.80;;;0.60;;
23376;SDS011;14353;46.070;13.222;2023-05-14T09:40:58;0.50;;;0.50;;
23376;SDS011;14353;46.070;13.222;2023-05-14T09:43:25;0.60;;;0.50;;
23376;SDS011;14353;46.070;13.222;2023-05-14T09:45:51;0.63;;;0.60;;
23376;SDS011;14353;46.070;13.222;2023-05-14T09:48:17;0.40;;;0.40;;
23376;SDS011;14353;46.070;13.222;2023-05-14T09:50:44;0.40;;;0.40;;
23376;SDS011;14353;46.070;13.222;2023-05-14T09:53:10;1.33;;;0.70;;
23376;SDS011;14353;46.070;13.222;2023-05-14T09:55:37;0.73;;;0.70;;
23376;SDS011;14353;46.070;13.222;2023-05-14T09:58:03;0.60;;;0.60;;
23376;SDS011;14353;46.070;13.222;2023-05-14T10:00:33;0.50;;;0.50;;
23376;SDS011;14353;46.070;13.222;2023-05-14T10:03:03;0.73;;;0.60;;
23376;SDS011;14353;46.070;13.222;2023-05-14T10:05:40;0.50;;;0.40;;
23376;SDS011;14353;46.070;13.222;2023-05-14T10:08:13;0.60;;;0.60;;
23376;SDS011;14353;46.070;13.222;2023-05-14T10:10:53;0.80;;;0.60;;
23376;SDS011;14353;46.070;13.222;2023-05-14T10:13:21;0.75;;;0.60;;
23376;SDS011;14353;46.070;13.222;2023-05-14T10:16:04;0.43;;;0.40;;
23376;SDS011;14353;46.070;13.222;2023-05-14T10:18:39;0.57;;;0.57;;
23376;SDS011;14353;46.070;13.222;2023-05-14T10:21:07;0.52;;;0.50;;
23376;SDS011;14353;46.070;13.222;2023-05-14T10:23:34;0.63;;;0.63;;
23376;SDS011;14353;46.070;13.222;2023-05-14T10:26:02;0.50;;;0.50;;
23376;SDS011;14353;46.070;13.222;2023-05-14T10:28:28;0.55;;;0.55;;
23376;SDS011;14353;46.070;13.222;2023-05-14T10:30:55;0.80;;;0.57;;
23376;SDS011;14353;46.070;13.222;2023-05-14T10:33:21;0.50;;;0.50;;
23376;SDS011;14353;46.070;13.222;2023-05-14T10:38:27;0.70;;;0.60;;
23376;SDS011;14353;46.070;13.222;2023-05-14T10:40:55;1.75;;;0.70;;
23376;SDS011;14353;46.070;13.222;2023-05-14T10:43:25;0.93;;;0.80;;
23376;SDS011;14353;46.070;13.222;2023-05-14T10:45:53;0.85;;;0.70;;
23376;SDS011;14353;46.070;13.222;2023-05-14T10:48:20;0.50;;;0.50;;
23376;SDS011;14353;46.070;13.222;2023-05-14T10:50:52;0.50;;;0.47;;
23376;SDS011;14353;46.070;13.222;2023-05-14T10:53:19;0.60;;;0.60;;
23376;SDS011;14353;46.070;13.222;2023-05-14T10:55:46;0.77;;;0.77;;
23376;SDS011;14353;46.070;13.222;2023-05-14T10:58:12;0.60;;;0.50;;
23376;SDS011;14353;46.070;13.222;2023-05-14T11:00:39;0.60;;;0.60;;
23376;SDS011;14353;46.070;13.222;2023-05-14T11:03:05;0.50;;;0.50;;
23376;SDS011;14353;46.070;13.222;2023-05-14T11:05:31;0.93;;;0.60;;
23376;SDS011;14353;46.070;13.222;2023-05-14T11:08:01;0.70;;;0.60;;
23376;SDS011;14353;46.070;13.222;2023-05-14T11:10:29;0.80;;;0.63;;
23376;SDS011;14353;46.070;13.222;2023-05-14T11:12:56;0.60;;;0.60;;
23376;SDS011;14353;46.070;13.222;2023-05-14T11:15:23;0.60;;;0.60;;
23376;SDS011;14353;46.070;13.222;2023-05-14T11:17:50;0.52;;;0.52;;
23376;SDS011;14353;46.070;13.222;2023-05-14T11:20:18;0.80;;;0.80;;
23376;SDS011;14353;46.070;13.222;2023-05-14T11:22:47;0.63;;;0.60;;
23376;SDS011;14353;46.070;13.222;2023-05-14T11:25:15;0.60;;;0.60;;
23376;SDS011;14353;46.070;13.222;2023-05-14T11:27:43;0.73;;;0.63;;
23376;SDS011;14353;46.070;13.222;2023-05-14T11:30:14;0.60;;;0.60;;
23376;SDS011;14353;46.070;13.222;2023-05-14T11:32:42;0.68;;;0.68;;
23376;SDS011;14353;46.070;13.222;2023-05-14T11:35:12;0.65;;;0.40;;
23376;SDS011;14353;46.070;13.222;2023-05-14T11:37:38;0.60;;;0.50;;
23376;SDS011;14353;46.070;13.222;2023-05-14T11:40:06;0.93;;;0.50;;
23376;SDS011;14353;46.070;13.222;2023-05-14T11:42:36;0.60;;;0.50;;
23376;SDS011;14353;46.070;13.222;2023-05-14T11:45:02;0.80;;;0.50;;
23376;SDS011;14353;46.070;13.222;2023-05-14T11:47:29;0.60;;;0.60;;
23376;SDS011;14353;46.070;13.222;2023-05-14T11:49:55;0.50;;;0.50;;
23376;SDS011;14353;46.070;13.222;2023-05-14T11:52:21;0.85;;;0.60;;
23376;SDS011;14353;46.070;13.222;2023-05-14T11:54:47;0.40;;;0.40;;
23376;SDS011;14353;46.070;13.222;2023-05-14T11:57:18;0.55;;;0.55;;
23376;SDS011;14353;46.070;13.222;2023-05-14T11:59:46;0.68;;;0.63;;
23376;SDS011;14353;46.070;13.222;2023-05-14T12:02:20;0.50;;;0.50;;
23376;SDS011;14353;46.070;13.222;2023-05-14T12:04:50;0.50;;;0.50;;
23376;SDS011;14353;46.070;13.222;2023-05-14T12:07:18;0.90;;;0.80;;
23376;SDS011;14353;46.070;13.222;2023-05-14T12:09:45;0.65;;;0.65;;
23376;SDS011;14353;46.070;13.222;2023-05-14T12:12:13;0.52;;;0.52;;
23376;SDS011;14353;46.070;13.222;2023-05-14T12:14:43;0.52;;;0.52;;
23376;SDS011;14353;46.070;13.222;2023-05-14T12:17:13;0.85;;;0.50;;
23376;SDS011;14353;46.070;13.222;2023-05-14T12:22:09;0.82;;;0.60;;
23376;SDS011;14353;46.070;13.222;2023-05-14T12:24:36;0.50;;;0.50;;
23376;SDS011;14353;46.070;13.222;2023-05-14T12:27:03;0.73;;;0.60;;
23376;SDS011;14353;46.070;13.222;2023-05-14T12:29:29;0.75;;;0.60;;
23376;SDS011;14353;46.070;13.222;2023-05-14T12:31:56;0.77;;;0.63;;
23376;SDS011;14353;46.070;13.222;2023-05-14T12:34:27;0.73;;;0.60;;
23376;SDS011;14353;46.070;13.222;2023-05-14T12:36:53;0.70;;;0.70;;
23376;SDS011;14353;46.070;13.222;2023-05-14T12:39:19;0.57;;;0.55;;
23376;SDS011;14353;46.070;13.222;2023-05-14T12:41:45;0.75;;;0.50;;
23376;SDS011;14353;46.070;13.222;2023-05-14T12:44:10;0.60;;;0.60;;
23376;SDS011;14353;46.070;13.222;2023-05-14T12:46:36;0.50;;;0.50;;
23376;SDS011;14353;46.070;13.222;2023-05-14T12:49:02;0.60;;;0.60;;
23376;SDS011;14353;46.070;13.222;2023-05-14T12:51:27;0.80;;;0.63;;
23376;SDS011;14353;46.070;13.222;2023-05-14T12:53:53;0.70;;;0.70;;
23376;SDS011;14353;46.070;13.222;2023-05-14T12:56:19;0.60;;;0.60;;
23376;SDS011;14353;46.070;13.222;2023-05-14T12:58:46;0.95;;;0.70;;
23376;SDS011;14353;46.070;13.222;2023-05-14T13:01:11;0.70;;;0.70;;
23376;SDS011;14353;46.070;13.222;2023-05-14T13:03:37;0.70;;;0.70;;
23376;SDS011;14353;46.070;13.222;2023-05-14T13:06:04;0.93;;;0.52;;
23376;SDS011;14353;46.070;13.222;2023-05-14T13:08:29;0.65;;;0.60;;
23376;SDS011;14353;46.070;13.222;2023-05-14T13:10:55;1.15;;;0.80;;
23376;SDS011;14353;46.070;13.222;2023-05-14T13:13:21;0.60;;;0.60;;
23376;SDS011;14353;46.070;13.222;2023-05-14T13:15:47;0.68;;;0.50;;
23376;SDS011;14353;46.070;13.222;2023-05-14T13:18:13;0.50;;;0.50;;
23376;SDS011;14353;46.070;13.222;2023-05-14T13:20:40;0.63;;;0.60;;
23376;SDS011;14353;46.070;13.222;2023-05-14T13:23:06;1.17;;;0.65;;
23376;SDS011;14353;46.070;13.222;2023-05-14T13:25:32;0.77;;;0.60;;
23376;SDS011;14353;46.070;13.222;2023-05-14T13:27:58;0.60;;;0.60;;
23376;SDS011;14353;46.070;13.222;2023-05-14T13:30:23;0.70;;;0.70;;
23376;SDS011;14353;46.070;13.222;2023-05-14T13:32:49;0.60;;;0.60;;
23376;SDS011;14353;46.070;13.222;2023-05-14T13:35:15;0.60;;;0.60;;
23376;SDS011;14353;46.070;13.222;2023-05-14T13:37:44;0.70;;;0.60;;
23376;SDS011;14353;46.070;13.222;2023-05-14T13:40:11;0.73;;;0.70;;
23376;SDS011;14353;46.070;13.222;2023-05-14T13:42:37;1.02;;;0.77;;
23376;SDS011;14353;46.070;13.222;2023-05-14T13:45:06;0.50;;;0.50;;
23376;SDS011;14353;46.070;13.222;2023-05-14T13:47:32;0.60;;;0.60;;
23376;SDS011;14353;46.070;13.222;2023-05-14T13:49:58;0.98;;;0.70;;
23376;SDS011;14353;46.070;13.222;2023-05-14T13:52:24;0.52;;;0.52;;
23376;SDS011;14353;46.070;13.222;2023-05-14T13:54:50;0.70;;;0.70;;
23376;SDS011;14353;46.070;13.222;2023-05-14T13:57:18;0.60;;;0.60;;
23376;SDS011;14353;46.070;13.222;2023-05-14T13:59:44;0.70;;;0.70;;
23376;SDS011;14353;46.070;13.222;2023-05-14T14:02:10;1.20;;;0.68;;
23376;SDS011;14353;46.070;13.222;2023-05-14T14:04:36;0.82;;;0.68;;
23376;SDS011;14353;46.070;13.222;2023-05-14T14:07:02;0.70;;;0.70;;
23376;SDS011;14353;46.070;13.222;2023-05-14T14:09:28;0.70;;;0.70;;
23376;SDS011;14353;46.070;13.222;2023-05-14T14:11:59;0.70;;;0.60;;
23376;SDS011;14353;46.070;13.222;2023-05-14T14:14:26;0.70;;;0.60;;
23376;SDS011;14353;46.070;13.222;2023-05-14T14:16:52;0.98;;;0.70;;
23376;SDS011;14353;46.070;13.222;2023-05-14T14:19:17;0.63;;;0.60;;
23376;SDS011;14353;46.070;13.222;2023-05-14T14:21:43;0.70;;;0.70;;
23376;SDS011;14353;46.070;13.222;2023-05-14T14:24:09;0.88;;;0.70;;
23376;SDS011;14353;46.070;13.222;2023-05-14T14:26:35;0.80;;;0.60;;
23376;SDS011;14353;46.070;13.222;2023-05-14T14:29:00;1.23;;;0.80;;
23376;SDS011;14353;46.070;13.222;2023-05-14T14:31:26;0.65;;;0.65;;
23376;SDS011;14353;46.070;13.222;2023-05-14T14:33:52;1.05;;;0.80;;
23376;SDS011;14353;46.070;13.222;2023-05-14T14:36:17;0.60;;;0.60;;
23376;SDS011;14353;46.070;13.222;2023-05-14T14:38:43;0.95;;;0.68;;